Airfield :
LOGIN :

Register | Disclaimer

   EN    FR    IT 

 










Legend :    VFR   Marginal VFR   IFR   Intensive IFR   Very Intensive IFR
Visi :
Ceiling :
>= 8 km
>= 3000ft
5 to 8 km
1000 to 3000 ft
1500m to 5 km
500 to 1000 ft
800 to 1500m
200 to 500 ft
< 800m
< 200 ft
Symbols :   Thunderstorms  Fog  Heavy snow  Heavy precipitations  Wind > 20 kt
SIGMETs :     Misc.  Thunderstorms  Icing  Turbulence  Mountain Waves  Volcanic Ashes







- Airport Elevation : 302 ft
- IATA code : CGN


EDDK - Cologne Bonn

CURRENT METAR :
  • 222150Z 31014KT CAVOK 21/14 Q1012 BECMG 27008KT

EXPIRED METARs :
  • 222120Z 31017KT CAVOK 22/15 Q1012 BECMG 27008KT
  • 222104Z 32013G23KT CAVOK 23/15 Q1011 BECMG 27010KT
  • 222050Z 31018KT CAVOK 23/15 Q1011 BECMG 27010KT
  • 222020Z 31019G30KT CAVOK 25/14 Q1011 BECMG 27010KT
  • 221950Z 27021G31KT CAVOK 27/14 Q1010 NOSIG
  • 221928Z 30015G25KT 9999 FEW060CB BKN300 27/17 Q1009 NOSIG
  • 221920Z 31015KT 9999 FEW060CB SCT300 27/16 Q1009 NOSIG
  • 221905Z 32014G24KT 9999 FEW065TCU SCT300 27/16 Q1009 NOSIG

TAF TAF EDDK
Valid from the 22 at 18:00 until the 24 at 00:00 UTC


221700Z 2218/2324 27010KT CAVOK
TEMPO 2218/2220 24020G35KT TSRA BKN040CB
PROB30
TEMPO 2218/2220 28025G45KT TSRAGR
TEMPO 2220/2223 25015G25KT
BECMG 2300/2303 26005KT
BECMG 2311/2314 27010KT
No reported NOTAMs for that airfield.
1 SIGMET reported for the Langen FIR (EDGG) :
 
Frequent thunderstorms and hail
EDGG SIGMET 5 VALID 222015/222215 EDZF
EDGG LANGEN FIR FRQ TSGR OBS WI N5121 E01011 - N5119 E01035 - N5044 E01040 - N5028 E01032 - N5017 E00848 - N5034 E00843 - N5121 E01011 TOP FL420 MOV E WKN=



MET'MAP, your aeronautical weather chart ! - Copyright ORBIFLY December 2007 - Disclaimer

ORBIFLY MET'MAP TEAM :

Programming & Development : Alexandra Zaïnal
Concept & Development : Baudouin d'Aumeries
Co-Development & Prog : Marc-Olivier Méhu
Technical & hardware support : Manuel Goepfert

Contact : metmap@orbifly.com




SOURCES & CREDITS :

   NOAA